sensor_id;sensor_type;location;lat;lon;timestamp;pressure;altitude;pressure_sealevel;temperature
61189;BMP280;47054;39.716;2.904;2022-07-23T00:01:25;100377.84;;;35.24
61189;BMP280;47054;39.716;2.904;2022-07-23T00:04:11;100394.91;;;35.28
61189;BMP280;47054;39.716;2.904;2022-07-23T00:06:56;100387.13;;;35.26
61189;BMP280;47054;39.716;2.904;2022-07-23T00:09:40;100369.34;;;35.22
61189;BMP280;47054;39.716;2.904;2022-07-23T00:12:25;100389.13;;;35.26
61189;BMP280;47054;39.716;2.904;2022-07-23T00:15:10;100377.38;;;35.25
61189;BMP280;47054;39.716;2.904;2022-07-23T00:17:54;100381.13;;;35.22
61189;BMP280;47054;39.716;2.904;2022-07-23T00:20:39;100357.72;;;35.06
61189;BMP280;47054;39.716;2.904;2022-07-23T00:23:23;100376.31;;;35.17
61189;BMP280;47054;39.716;2.904;2022-07-23T00:26:09;100381.59;;;35.21
61189;BMP280;47054;39.716;2.904;2022-07-23T00:28:53;100379.59;;;35.21
61189;BMP280;47054;39.716;2.904;2022-07-23T00:31:38;100379.31;;;35.19
61189;BMP280;47054;39.716;2.904;2022-07-23T00:34:23;100381.06;;;35.17
61189;BMP280;47054;39.716;2.904;2022-07-23T00:37:07;100379.84;;;35.18
61189;BMP280;47054;39.716;2.904;2022-07-23T00:39:51;100391.13;;;35.20
61189;BMP280;47054;39.716;2.904;2022-07-23T00:42:36;100388.13;;;35.18
61189;BMP280;47054;39.716;2.904;2022-07-23T00:45:21;100387.34;;;35.17
61189;BMP280;47054;39.716;2.904;2022-07-23T00:48:05;100385.34;;;35.18
61189;BMP280;47054;39.716;2.904;2022-07-23T00:50:50;100378.00;;;35.09
61189;BMP280;47054;39.716;2.904;2022-07-23T00:53:34;100372.25;;;35.07
61189;BMP280;47054;39.716;2.904;2022-07-23T00:56:19;100396.59;;;35.14
61189;BMP280;47054;39.716;2.904;2022-07-23T00:59:03;100386.28;;;35.09
61189;BMP280;47054;39.716;2.904;2022-07-23T01:01:48;100393.84;;;35.14
61189;BMP280;47054;39.716;2.904;2022-07-23T01:04:33;100393.34;;;35.10
61189;BMP280;47054;39.716;2.904;2022-07-23T01:07:18;100396.84;;;35.11
61189;BMP280;47054;39.716;2.904;2022-07-23T01:10:04;100398.84;;;35.10
61189;BMP280;47054;39.716;2.904;2022-07-23T01:12:48;100409.63;;;35.08
61189;BMP280;47054;39.716;2.904;2022-07-23T01:15:34;100387.72;;;34.99
61189;BMP280;47054;39.716;2.904;2022-07-23T01:18:19;100385.44;;;34.92
61189;BMP280;47054;39.716;2.904;2022-07-23T01:21:03;100410.09;;;35.06
61189;BMP280;47054;39.716;2.904;2022-07-23T01:23:48;100401.81;;;35.01
61189;BMP280;47054;39.716;2.904;2022-07-23T01:26:32;100406.56;;;35.06
61189;BMP280;47054;39.716;2.904;2022-07-23T01:29:17;100419.59;;;35.05
61189;BMP280;47054;39.716;2.904;2022-07-23T01:32:05;100406.28;;;34.98
61189;BMP280;47054;39.716;2.904;2022-07-23T01:34:50;100410.34;;;35.03
61189;BMP280;47054;39.716;2.904;2022-07-23T01:37:36;100404.03;;;34.97
61189;BMP280;47054;39.716;2.904;2022-07-23T01:40:21;100406.03;;;35.02
61189;BMP280;47054;39.716;2.904;2022-07-23T01:43:05;100383.41;;;34.87
61189;BMP280;47054;39.716;2.904;2022-07-23T01:45:52;100408.03;;;35.01
61189;BMP280;47054;39.716;2.904;2022-07-23T01:48:36;100405.28;;;35.01
61189;BMP280;47054;39.716;2.904;2022-07-23T01:51:47;100412.06;;;35.00
61189;BMP280;47054;39.716;2.904;2022-07-23T01:54:45;100407.03;;;34.99
61189;BMP280;47054;39.716;2.904;2022-07-23T01:57:31;100414.56;;;34.98
61189;BMP280;47054;39.716;2.904;2022-07-23T02:00:16;100373.31;;;34.73
61189;BMP280;47054;39.716;2.904;2022-07-23T02:03:05;100412.28;;;34.97
61189;BMP280;47054;39.716;2.904;2022-07-23T02:05:50;100414.78;;;34.95
61189;BMP280;47054;39.716;2.904;2022-07-23T02:08:34;100410.25;;;34.92
61189;BMP280;47054;39.716;2.904;2022-07-23T02:11:20;100386.09;;;34.76
61189;BMP280;47054;39.716;2.904;2022-07-23T02:14:04;100410.25;;;34.92
61189;BMP280;47054;39.716;2.904;2022-07-23T02:16:49;100409.22;;;34.89
61189;BMP280;47054;39.716;2.904;2022-07-23T02:19:33;100419.53;;;34.94
61189;BMP280;47054;39.716;2.904;2022-07-23T02:22:20;100418.28;;;34.95
61189;BMP280;47054;39.716;2.904;2022-07-23T02:25:07;100416.03;;;34.94
61189;BMP280;47054;39.716;2.904;2022-07-23T02:27:52;100417.28;;;34.93
61189;BMP280;47054;39.716;2.904;2022-07-23T02:30:37;100409.72;;;34.88
61189;BMP280;47054;39.716;2.904;2022-07-23T02:33:24;100417.28;;;34.93
61189;BMP280;47054;39.716;2.904;2022-07-23T02:36:08;100414.75;;;34.89
61189;BMP280;47054;39.716;2.904;2022-07-23T02:38:53;100394.13;;;34.79
61189;BMP280;47054;39.716;2.904;2022-07-23T02:41:38;100412.97;;;34.86
61189;BMP280;47054;39.716;2.904;2022-07-23T02:44:22;100409.47;;;34.86
61189;BMP280;47054;39.716;2.904;2022-07-23T02:47:10;100408.97;;;34.87
61189;BMP280;47054;39.716;2.904;2022-07-23T02:49:54;100412.69;;;34.84
61189;BMP280;47054;39.716;2.904;2022-07-23T02:52:40;100396.13;;;34.73
61189;BMP280;47054;39.716;2.904;2022-07-23T02:55:25;100417.75;;;34.86
61189;BMP280;47054;39.716;2.904;2022-07-23T02:58:11;100421.72;;;34.85
61189;BMP280;47054;39.716;2.904;2022-07-23T03:00:56;100415.44;;;34.79
61189;BMP280;47054;39.716;2.904;2022-07-23T03:03:43;100411.88;;;34.73
61189;BMP280;47054;39.716;2.904;2022-07-23T03:06:28;100412.38;;;34.71
61189;BMP280;47054;39.716;2.904;2022-07-23T03:09:12;100415.91;;;34.77
61189;BMP280;47054;39.716;2.904;2022-07-23T03:11:57;100428.44;;;34.78
61189;BMP280;47054;39.716;2.904;2022-07-23T03:14:42;100415.66;;;34.75
61189;BMP280;47054;39.716;2.904;2022-07-23T03:17:26;100424.16;;;34.77
61189;BMP280;47054;39.716;2.904;2022-07-23T03:20:11;100415.13;;;34.71
61189;BMP280;47054;39.716;2.904;2022-07-23T03:22:56;100428.19;;;34.76
61189;BMP280;47054;39.716;2.904;2022-07-23T03:25:41;100423.91;;;34.75
61189;BMP280;47054;39.716;2.904;2022-07-23T03:28:26;100414.56;;;34.67
61189;BMP280;47054;39.716;2.904;2022-07-23T03:31:11;100413.84;;;34.67
61189;BMP280;47054;39.716;2.904;2022-07-23T03:33:57;100424.88;;;34.72
61189;BMP280;47054;39.716;2.904;2022-07-23T03:36:42;100421.38;;;34.72
61189;BMP280;47054;39.716;2.904;2022-07-23T03:39:27;100427.38;;;34.70
61189;BMP280;47054;39.716;2.904;2022-07-23T03:42:12;100433.91;;;34.73
61189;BMP280;47054;39.716;2.904;2022-07-23T03:44:56;100431.16;;;34.73
61189;BMP280;47054;39.716;2.904;2022-07-23T03:47:41;100422.81;;;34.67
61189;BMP280;47054;39.716;2.904;2022-07-23T03:50:25;100410.03;;;34.59
61189;BMP280;47054;39.716;2.904;2022-07-23T03:53:13;100428.41;;;34.73
61189;BMP280;47054;39.716;2.904;2022-07-23T03:55:58;100425.38;;;34.71
61189;BMP280;47054;39.716;2.904;2022-07-23T03:58:43;100432.13;;;34.70
61189;BMP280;47054;39.716;2.904;2022-07-23T04:01:28;100423.56;;;34.62
61189;BMP280;47054;39.716;2.904;2022-07-23T04:04:12;100429.88;;;34.68
61189;BMP280;47054;39.716;2.904;2022-07-23T04:06:58;100418.81;;;34.63
61189;BMP280;47054;39.716;2.904;2022-07-23T04:09:44;100422.34;;;34.63
61189;BMP280;47054;39.716;2.904;2022-07-23T04:12:28;100431.59;;;34.66
61189;BMP280;47054;39.716;2.904;2022-07-23T04:15:12;100424.88;;;34.67
61189;BMP280;47054;39.716;2.904;2022-07-23T04:17:57;100429.34;;;34.64
61189;BMP280;47054;39.716;2.904;2022-07-23T04:20:48;100421.25;;;34.55
61189;BMP280;47054;39.716;2.904;2022-07-23T04:23:34;100434.09;;;34.64
61189;BMP280;47054;39.716;2.904;2022-07-23T04:26:18;100422.72;;;34.51
61189;BMP280;47054;39.716;2.904;2022-07-23T04:29:04;100417.19;;;34.51
61189;BMP280;47054;39.716;2.904;2022-07-23T04:31:49;100442.56;;;34.60
61189;BMP280;47054;39.716;2.904;2022-07-23T04:34:35;100443.59;;;34.63
61189;BMP280;47054;39.716;2.904;2022-07-23T04:37:20;100458.13;;;34.63
61189;BMP280;47054;39.716;2.904;2022-07-23T04:40:05;100441.00;;;34.54
61189;BMP280;47054;39.716;2.904;2022-07-23T04:42:49;100450.63;;;34.64
61189;BMP280;47054;39.716;2.904;2022-07-23T04:45:34;100440.25;;;34.53
61189;BMP280;47054;39.716;2.904;2022-07-23T04:48:18;100453.13;;;34.62
61189;BMP280;47054;39.716;2.904;2022-07-23T04:51:04;100438.47;;;34.50
61189;BMP280;47054;39.716;2.904;2022-07-23T04:53:49;100451.34;;;34.59
61189;BMP280;47054;39.716;2.904;2022-07-23T04:56:34;100446.06;;;34.61
61189;BMP280;47054;39.716;2.904;2022-07-23T04:59:18;100441.28;;;34.56
61189;BMP280;47054;39.716;2.904;2022-07-23T05:02:06;100426.66;;;34.44
61189;BMP280;47054;39.716;2.904;2022-07-23T05:04:50;100454.53;;;34.57
61189;BMP280;47054;39.716;2.904;2022-07-23T05:07:35;100455.06;;;34.56
61189;BMP280;47054;39.716;2.904;2022-07-23T05:10:20;100451.00;;;34.51
61189;BMP280;47054;39.716;2.904;2022-07-23T05:13:05;100449.03;;;34.52
61189;BMP280;47054;39.716;2.904;2022-07-23T05:15:49;100443.19;;;34.44
61189;BMP280;47054;39.716;2.904;2022-07-23T05:18:34;100455.53;;;34.54
61189;BMP280;47054;39.716;2.904;2022-07-23T05:21:18;100463.03;;;34.54
61189;BMP280;47054;39.716;2.904;2022-07-23T05:24:03;100458.50;;;34.51
61189;BMP280;47054;39.716;2.904;2022-07-23T05:26:47;100438.66;;;34.41
61189;BMP280;47054;39.716;2.904;2022-07-23T05:29:32;100455.00;;;34.50
61189;BMP280;47054;39.716;2.904;2022-07-23T05:32:17;100458.50;;;34.51
61189;BMP280;47054;39.716;2.904;2022-07-23T05:35:09;100454.47;;;34.46
61189;BMP280;47054;39.716;2.904;2022-07-23T05:37:57;100450.75;;;34.49
61189;BMP280;47054;39.716;2.904;2022-07-23T05:40:41;100455.50;;;34.49
61189;BMP280;47054;39.716;2.904;2022-07-23T05:43:26;100456.72;;;34.48
61189;BMP280;47054;39.716;2.904;2022-07-23T05:46:11;100442.63;;;34.40
61189;BMP280;47054;39.716;2.904;2022-07-23T05:48:58;100456.72;;;34.48
61189;BMP280;47054;39.716;2.904;2022-07-23T05:52:04;100457.22;;;34.46
61189;BMP280;47054;39.716;2.904;2022-07-23T05:55:10;100435.78;;;34.30
61189;BMP280;47054;39.716;2.904;2022-07-23T05:57:58;100446.72;;;34.45
61189;BMP280;47054;39.716;2.904;2022-07-23T06:00:43;100454.97;;;34.45
61189;BMP280;47054;39.716;2.904;2022-07-23T06:03:27;100433.03;;;34.30
61189;BMP280;47054;39.716;2.904;2022-07-23T06:06:12;100459.16;;;34.40
61189;BMP280;47054;39.716;2.904;2022-07-23T06:08:58;100454.66;;;34.43
61189;BMP280;47054;39.716;2.904;2022-07-23T06:11:43;100452.66;;;34.43
61189;BMP280;47054;39.716;2.904;2022-07-23T06:14:27;100449.16;;;34.43
61189;BMP280;47054;39.716;2.904;2022-07-23T06:17:14;100453.44;;;34.44
61189;BMP280;47054;39.716;2.904;2022-07-23T06:19:59;100455.44;;;34.43
61189;BMP280;47054;39.716;2.904;2022-07-23T06:22:44;100433.53;;;34.29
61189;BMP280;47054;39.716;2.904;2022-07-23T06:25:30;100458.19;;;34.43
61189;BMP280;47054;39.716;2.904;2022-07-23T06:28:14;100454.66;;;34.43
61189;BMP280;47054;39.716;2.904;2022-07-23T06:31:00;100459.91;;;34.41
61189;BMP280;47054;39.716;2.904;2022-07-23T06:33:44;100458.69;;;34.42
61189;BMP280;47054;39.716;2.904;2022-07-23T06:36:29;100464.19;;;34.42
61189;BMP280;47054;39.716;2.904;2022-07-23T06:39:13;100459.66;;;34.39
61189;BMP280;47054;39.716;2.904;2022-07-23T06:42:01;100456.38;;;34.35
61189;BMP280;47054;39.716;2.904;2022-07-23T06:45:08;100465.69;;;34.43
61189;BMP280;47054;39.716;2.904;2022-07-23T06:47:54;100451.06;;;34.31
61189;BMP280;47054;39.716;2.904;2022-07-23T06:50:39;100470.47;;;34.42
61189;BMP280;47054;39.716;2.904;2022-07-23T06:53:23;100466.19;;;34.41
61189;BMP280;47054;39.716;2.904;2022-07-23T06:56:08;100473.22;;;34.42
61189;BMP280;47054;39.716;2.904;2022-07-23T06:58:54;100462.94;;;34.43
61189;BMP280;47054;39.716;2.904;2022-07-23T07:01:38;100472.19;;;34.40
61189;BMP280;47054;39.716;2.904;2022-07-23T07:04:23;100469.19;;;34.43
61189;BMP280;47054;39.716;2.904;2022-07-23T07:07:07;100454.06;;;34.33
61189;BMP280;47054;39.716;2.904;2022-07-23T07:09:52;100462.66;;;34.41
61189;BMP280;47054;39.716;2.904;2022-07-23T07:12:37;100469.44;;;34.40
61189;BMP280;47054;39.716;2.904;2022-07-23T07:15:21;100472.72;;;34.44
61189;BMP280;47054;39.716;2.904;2022-07-23T07:18:08;100472.19;;;34.40
61189;BMP280;47054;39.716;2.904;2022-07-23T07:20:53;100480.97;;;34.44
61189;BMP280;47054;39.716;2.904;2022-07-23T07:23:38;100467.38;;;34.35
61189;BMP280;47054;39.716;2.904;2022-07-23T07:26:22;100466.81;;;34.31
61189;BMP280;47054;39.716;2.904;2022-07-23T07:29:07;100470.94;;;34.41
61189;BMP280;47054;39.716;2.904;2022-07-23T07:31:51;100444.69;;;34.20
61189;BMP280;47054;39.716;2.904;2022-07-23T07:34:35;100472.66;;;34.38
61189;BMP280;47054;39.716;2.904;2022-07-23T07:37:20;100482.97;;;34.43
61189;BMP280;47054;39.716;2.904;2022-07-23T07:40:05;100464.13;;;34.36
61189;BMP280;47054;39.716;2.904;2022-07-23T07:42:52;100446.22;;;34.21
61189;BMP280;47054;39.716;2.904;2022-07-23T07:45:37;100470.69;;;34.39
61189;BMP280;47054;39.716;2.904;2022-07-23T07:48:21;100484.94;;;34.43
61189;BMP280;47054;39.716;2.904;2022-07-23T07:51:06;100463.06;;;34.28
61189;BMP280;47054;39.716;2.904;2022-07-23T07:53:51;100466.06;;;34.30
61189;BMP280;47054;39.716;2.904;2022-07-23T07:56:38;100477.19;;;34.41
61189;BMP280;47054;39.716;2.904;2022-07-23T07:59:23;100487.44;;;34.41
61189;BMP280;47054;39.716;2.904;2022-07-23T08:02:07;100485.72;;;34.43
61189;BMP280;47054;39.716;2.904;2022-07-23T08:04:53;100448.69;;;34.19
61189;BMP280;47054;39.716;2.904;2022-07-23T08:07:37;100487.25;;;34.44
61189;BMP280;47054;39.716;2.904;2022-07-23T08:10:24;100489.25;;;34.44
61189;BMP280;47054;39.716;2.904;2022-07-23T08:13:12;100493.53;;;34.45
61189;BMP280;47054;39.716;2.904;2022-07-23T08:15:57;100496.72;;;34.43
61189;BMP280;47054;39.716;2.904;2022-07-23T08:18:41;100492.75;;;34.44
61189;BMP280;47054;39.716;2.904;2022-07-23T08:21:26;100494.50;;;34.42
61189;BMP280;47054;39.716;2.904;2022-07-23T08:24:12;100488.69;;;34.40
61189;BMP280;47054;39.716;2.904;2022-07-23T08:26:57;100465.59;;;34.32
61189;BMP280;47054;39.716;2.904;2022-07-23T08:29:41;100487.25;;;34.44
61189;BMP280;47054;39.716;2.904;2022-07-23T08:32:26;100487.00;;;34.42
61189;BMP280;47054;39.716;2.904;2022-07-23T08:35:10;100485.25;;;34.45
61189;BMP280;47054;39.716;2.904;2022-07-23T08:37:56;100492.00;;;34.44
61189;BMP280;47054;39.716;2.904;2022-07-23T08:40:46;100466.06;;;34.30
61189;BMP280;47054;39.716;2.904;2022-07-23T08:43:32;100490.78;;;34.45
61189;BMP280;47054;39.716;2.904;2022-07-23T08:46:19;100480.16;;;34.38
61189;BMP280;47054;39.716;2.904;2022-07-23T08:49:05;100486.75;;;34.46
61189;BMP280;47054;39.716;2.904;2022-07-23T08:51:50;100489.25;;;34.44
61189;BMP280;47054;39.716;2.904;2022-07-23T08:54:35;100483.19;;;34.40
61189;BMP280;47054;39.716;2.904;2022-07-23T08:57:20;100484.94;;;34.37
61189;BMP280;47054;39.716;2.904;2022-07-23T09:00:05;100492.19;;;34.40
61189;BMP280;47054;39.716;2.904;2022-07-23T09:02:51;100490.78;;;34.45
61189;BMP280;47054;39.716;2.904;2022-07-23T09:05:35;100485.66;;;34.38
61189;BMP280;47054;39.716;2.904;2022-07-23T09:08:21;100492.50;;;34.42
61189;BMP280;47054;39.716;2.904;2022-07-23T09:11:11;100487.44;;;34.41
61189;BMP280;47054;39.716;2.904;2022-07-23T09:13:57;100492.69;;;34.39
61189;BMP280;47054;39.716;2.904;2022-07-23T09:16:45;100488.91;;;34.36
61189;BMP280;47054;39.716;2.904;2022-07-23T09:19:29;100489.66;;;34.37
61189;BMP280;47054;39.716;2.904;2022-07-23T09:22:22;100494.22;;;34.40
61189;BMP280;47054;39.716;2.904;2022-07-23T09:25:12;100491.44;;;34.40
61189;BMP280;47054;39.716;2.904;2022-07-23T09:27:59;100485.66;;;34.38
61189;BMP280;47054;39.716;2.904;2022-07-23T09:30:47;100489.66;;;34.37
61189;BMP280;47054;39.716;2.904;2022-07-23T09:33:34;100461.50;;;34.22
61189;BMP280;47054;39.716;2.904;2022-07-23T09:36:29;100489.94;;;34.39
61189;BMP280;47054;39.716;2.904;2022-07-23T09:39:16;100499.72;;;34.40
61189;BMP280;47054;39.716;2.904;2022-07-23T09:45:01;100505.50;;;34.42
61189;BMP280;47054;39.716;2.904;2022-07-23T09:47:46;100477.06;;;34.25
61189;BMP280;47054;39.716;2.904;2022-07-23T09:50:30;100475.56;;;34.29
61189;BMP280;47054;39.716;2.904;2022-07-23T09:53:24;100503.00;;;34.44
61189;BMP280;47054;39.716;2.904;2022-07-23T09:56:12;100494.50;;;34.42
61189;BMP280;47054;39.716;2.904;2022-07-23T09:58:59;100485.66;;;34.32
61189;BMP280;47054;39.716;2.904;2022-07-23T10:01:55;100504.22;;;34.43
61189;BMP280;47054;39.716;2.904;2022-07-23T10:04:41;100494.69;;;34.38
61189;BMP280;47054;39.716;2.904;2022-07-23T10:07:39;100488.91;;;34.36
61189;BMP280;47054;39.716;2.904;2022-07-23T10:10:46;100500.75;;;34.42
61189;BMP280;47054;39.716;2.904;2022-07-23T10:14:03;100479.81;;;34.30
61189;BMP280;47054;39.716;2.904;2022-07-23T10:17:02;100473.03;;;34.26
61189;BMP280;47054;39.716;2.904;2022-07-23T10:19:48;100495.25;;;34.42
61189;BMP280;47054;39.716;2.904;2022-07-23T10:22:38;100495.03;;;34.46
61189;BMP280;47054;39.716;2.904;2022-07-23T10:25:59;100492.28;;;34.46
61189;BMP280;47054;39.716;2.904;2022-07-23T10:29:05;100501.28;;;34.46
61189;BMP280;47054;39.716;2.904;2022-07-23T10:32:00;100482.50;;;34.45
61189;BMP280;47054;39.716;2.904;2022-07-23T10:35:03;100465.38;;;34.35
61189;BMP280;47054;39.716;2.904;2022-07-23T10:37:51;100482.50;;;34.45
61189;BMP280;47054;39.716;2.904;2022-07-23T10:40:59;100466.72;;;34.45
61189;BMP280;47054;39.716;2.904;2022-07-23T10:43:44;100454.59;;;34.32
61189;BMP280;47054;39.716;2.904;2022-07-23T10:46:29;100476.69;;;34.43
61189;BMP280;47054;39.716;2.904;2022-07-23T10:49:29;100469.00;;;34.47
61189;BMP280;47054;39.716;2.904;2022-07-23T10:57:50;100453.97;;;34.48
61189;BMP280;47054;39.716;2.904;2022-07-23T11:00:36;100450.88;;;34.40
61189;BMP280;47054;39.716;2.904;2022-07-23T11:03:34;100444.16;;;34.41
61189;BMP280;47054;39.716;2.904;2022-07-23T11:06:23;100448.47;;;34.48
61189;BMP280;47054;39.716;2.904;2022-07-23T11:09:28;100446.00;;;34.50
61189;BMP280;47054;39.716;2.904;2022-07-23T11:14:59;100447.25;;;34.49
61189;BMP280;47054;39.716;2.904;2022-07-23T11:20:29;100436.69;;;34.47
61189;BMP280;47054;39.716;2.904;2022-07-23T11:23:17;100439.22;;;34.51
61189;BMP280;47054;39.716;2.904;2022-07-23T11:26:01;100446.53;;;34.54
61189;BMP280;47054;39.716;2.904;2022-07-23T11:28:46;100437.00;;;34.55
61189;BMP280;47054;39.716;2.904;2022-07-23T11:31:30;100439.75;;;34.55
61189;BMP280;47054;39.716;2.904;2022-07-23T11:34:35;100436.81;;;34.58
61189;BMP280;47054;39.716;2.904;2022-07-23T11:37:46;100433.28;;;34.58
61189;BMP280;47054;39.716;2.904;2022-07-23T11:40:30;100438.53;;;34.56
61189;BMP280;47054;39.716;2.904;2022-07-23T11:43:16;100423.69;;;34.48
61189;BMP280;47054;39.716;2.904;2022-07-23T11:46:01;100433.78;;;34.56
61189;BMP280;47054;39.716;2.904;2022-07-23T11:48:46;100431.97;;;34.53
61189;BMP280;47054;39.716;2.904;2022-07-23T11:51:30;100428.28;;;34.56
61189;BMP280;47054;39.716;2.904;2022-07-23T11:54:17;100427.78;;;34.58
61189;BMP280;47054;39.716;2.904;2022-07-23T11:57:02;100423.03;;;34.58
61189;BMP280;47054;39.716;2.904;2022-07-23T11:59:51;100430.06;;;34.59
61189;BMP280;47054;39.716;2.904;2022-07-23T12:03:00;100413.91;;;34.47
61189;BMP280;47054;39.716;2.904;2022-07-23T12:05:44;100411.22;;;34.52
61189;BMP280;47054;39.716;2.904;2022-07-23T12:08:29;100426.03;;;34.60
61189;BMP280;47054;39.716;2.904;2022-07-23T12:11:13;100421.28;;;34.61
61189;BMP280;47054;39.716;2.904;2022-07-23T12:14:02;100423.56;;;34.62
61189;BMP280;47054;39.716;2.904;2022-07-23T12:16:47;100423.03;;;34.58
61189;BMP280;47054;39.716;2.904;2022-07-23T12:19:31;100421.56;;;34.63
61189;BMP280;47054;39.716;2.904;2022-07-23T12:22:16;100400.69;;;34.51
61189;BMP280;47054;39.716;2.904;2022-07-23T12:25:06;100422.81;;;34.67
61189;BMP280;47054;39.716;2.904;2022-07-23T12:30:56;100416.63;;;34.67
61189;BMP280;47054;39.716;2.904;2022-07-23T12:33:41;100392.22;;;34.54
61189;BMP280;47054;39.716;2.904;2022-07-23T12:36:37;100411.59;;;34.71
61189;BMP280;47054;39.716;2.904;2022-07-23T12:39:32;100413.09;;;34.72
61189;BMP280;47054;39.716;2.904;2022-07-23T12:42:17;100396.00;;;34.62
61189;BMP280;47054;39.716;2.904;2022-07-23T12:45:10;100403.09;;;34.69
61189;BMP280;47054;39.716;2.904;2022-07-23T12:53:43;100415.91;;;34.77
61189;BMP280;47054;39.716;2.904;2022-07-23T12:56:30;100402.84;;;34.72
61189;BMP280;47054;39.716;2.904;2022-07-23T12:59:15;100407.38;;;34.75
61189;BMP280;47054;39.716;2.904;2022-07-23T13:02:00;100415.44;;;34.79
61189;BMP280;47054;39.716;2.904;2022-07-23T13:04:45;100404.63;;;34.75
61189;BMP280;47054;39.716;2.904;2022-07-23T13:07:29;100408.66;;;34.80
61189;BMP280;47054;39.716;2.904;2022-07-23T13:10:14;100406.16;;;34.82
61189;BMP280;47054;39.716;2.904;2022-07-23T13:12:58;100409.22;;;34.84
61189;BMP280;47054;39.716;2.904;2022-07-23T13:15:43;100400.97;;;34.84
61189;BMP280;47054;39.716;2.904;2022-07-23T13:18:27;100406.47;;;34.84
61189;BMP280;47054;39.716;2.904;2022-07-23T13:21:12;100378.31;;;34.69
61189;BMP280;47054;39.716;2.904;2022-07-23T13:23:56;100399.44;;;34.83
61189;BMP280;47054;39.716;2.904;2022-07-23T13:26:42;100402.94;;;34.89
61189;BMP280;47054;39.716;2.904;2022-07-23T13:29:26;100409.22;;;34.89
61189;BMP280;47054;39.716;2.904;2022-07-23T13:32:12;100412.75;;;34.90
61189;BMP280;47054;39.716;2.904;2022-07-23T13:34:57;100401.72;;;34.90
61189;BMP280;47054;39.716;2.904;2022-07-23T13:37:42;100393.72;;;34.92
61189;BMP280;47054;39.716;2.904;2022-07-23T13:40:26;100381.88;;;34.80
61189;BMP280;47054;39.716;2.904;2022-07-23T13:43:13;100409.47;;;34.91
61189;BMP280;47054;39.716;2.904;2022-07-23T13:45:58;100401.72;;;34.90
61189;BMP280;47054;39.716;2.904;2022-07-23T13:48:44;100401.97;;;34.92
61189;BMP280;47054;39.716;2.904;2022-07-23T13:51:29;100385.13;;;34.84
61189;BMP280;47054;39.716;2.904;2022-07-23T13:54:13;100402.78;;;34.98
61189;BMP280;47054;39.716;2.904;2022-07-23T13:56:58;100386.00;;;34.96
61189;BMP280;47054;39.716;2.904;2022-07-23T13:59:42;100374.63;;;34.83
61189;BMP280;47054;39.716;2.904;2022-07-23T14:02:26;100388.97;;;34.92
61189;BMP280;47054;39.716;2.904;2022-07-23T14:05:11;100384.72;;;34.97
61189;BMP280;47054;39.716;2.904;2022-07-23T14:07:56;100395.78;;;35.02
61189;BMP280;47054;39.716;2.904;2022-07-23T14:10:41;100378.94;;;34.95
61189;BMP280;47054;39.716;2.904;2022-07-23T14:13:25;100382.78;;;35.03
61189;BMP280;47054;39.716;2.904;2022-07-23T14:16:09;100371.44;;;34.95
61189;BMP280;47054;39.716;2.904;2022-07-23T14:18:54;100386.25;;;35.03
61189;BMP280;47054;39.716;2.904;2022-07-23T14:21:39;100393.09;;;35.08
61189;BMP280;47054;39.716;2.904;2022-07-23T14:24:23;100393.34;;;35.10
61189;BMP280;47054;39.716;2.904;2022-07-23T14:27:08;100388.81;;;35.07
61189;BMP280;47054;39.716;2.904;2022-07-23T14:29:54;100376.72;;;34.99
61189;BMP280;47054;39.716;2.904;2022-07-23T14:32:38;100390.09;;;35.12
61189;BMP280;47054;39.716;2.904;2022-07-23T14:35:23;100377.56;;;35.11
61189;BMP280;47054;39.716;2.904;2022-07-23T14:38:07;100391.84;;;35.15
61189;BMP280;47054;39.716;2.904;2022-07-23T14:40:52;100390.56;;;35.15
61189;BMP280;47054;39.716;2.904;2022-07-23T14:43:37;100379.84;;;35.18
61189;BMP280;47054;39.716;2.904;2022-07-23T14:46:21;100384.84;;;35.19
61189;BMP280;47054;39.716;2.904;2022-07-23T14:49:09;100380.09;;;35.20
61189;BMP280;47054;39.716;2.904;2022-07-23T14:51:53;100356.50;;;35.08
61189;BMP280;47054;39.716;2.904;2022-07-23T14:54:38;100384.63;;;35.23
61189;BMP280;47054;39.716;2.904;2022-07-23T14:57:25;100368.06;;;35.17
61189;BMP280;47054;39.716;2.904;2022-07-23T15:00:10;100377.59;;;35.22
61189;BMP280;47054;39.716;2.904;2022-07-23T15:02:55;100366.06;;;35.23
61189;BMP280;47054;39.716;2.904;2022-07-23T15:05:39;100375.59;;;35.28
61189;BMP280;47054;39.716;2.904;2022-07-23T15:08:23;100374.31;;;35.23
61189;BMP280;47054;39.716;2.904;2022-07-23T15:11:08;100367.06;;;35.26
61189;BMP280;47054;39.716;2.904;2022-07-23T15:13:56;100360.53;;;35.23
61189;BMP280;47054;39.716;2.904;2022-07-23T15:16:40;100373.38;;;35.32
61189;BMP280;47054;39.716;2.904;2022-07-23T15:19:25;100374.84;;;35.33
61189;BMP280;47054;39.716;2.904;2022-07-23T15:22:09;100381.41;;;35.35
61189;BMP280;47054;39.716;2.904;2022-07-23T15:24:53;100374.63;;;35.36
61189;BMP280;47054;39.716;2.904;2022-07-23T15:27:38;100373.63;;;35.34
61189;BMP280;47054;39.716;2.904;2022-07-23T15:30:25;100384.72;;;35.39
61189;BMP280;47054;39.716;2.904;2022-07-23T15:33:09;100367.63;;;35.35
61189;BMP280;47054;39.716;2.904;2022-07-23T15:35:54;100385.41;;;35.40
61189;BMP280;47054;39.716;2.904;2022-07-23T15:38:40;100378.38;;;35.33
61189;BMP280;47054;39.716;2.904;2022-07-23T15:41:25;100378.44;;;35.39
61189;BMP280;47054;39.716;2.904;2022-07-23T15:44:09;100374.63;;;35.36
61189;BMP280;47054;39.716;2.904;2022-07-23T15:46:56;100380.66;;;35.40
61189;BMP280;47054;39.716;2.904;2022-07-23T15:49:42;100374.38;;;35.40
61189;BMP280;47054;39.716;2.904;2022-07-23T15:52:26;100359.56;;;35.26
61189;BMP280;47054;39.716;2.904;2022-07-23T15:55:11;100351.53;;;35.23
61189;BMP280;47054;39.716;2.904;2022-07-23T15:57:55;100378.44;;;35.39
61189;BMP280;47054;39.716;2.904;2022-07-23T16:00:40;100373.16;;;35.41
61189;BMP280;47054;39.716;2.904;2022-07-23T16:03:25;100363.38;;;35.34
61189;BMP280;47054;39.716;2.904;2022-07-23T16:06:09;100368.88;;;35.40
61189;BMP280;47054;39.716;2.904;2022-07-23T16:08:54;100368.88;;;35.40